createdAt,value
2018-04-15T00:00:57.239Z,5.43
2018-04-15T00:03:32.357Z,5.33
2018-04-15T00:06:07.567Z,5.20
2018-04-15T00:08:42.803Z,7.43
2018-04-15T00:11:18.725Z,5.27
2018-04-15T00:13:53.852Z,4.43
2018-04-15T00:16:31.113Z,4.70
2018-04-15T00:19:06.425Z,6.03
2018-04-15T00:21:42.561Z,4.63
2018-04-15T00:24:17.738Z,5.40
2018-04-15T00:26:52.972Z,4.77
2018-04-15T00:29:28.254Z,6.23
2018-04-15T00:32:03.593Z,6.23
2018-04-15T00:34:38.832Z,5.67
2018-04-15T00:37:14.124Z,5.47
2018-04-15T00:39:49.264Z,6.10
2018-04-15T00:42:25.185Z,5.33
2018-04-15T00:45:00.395Z,7.90
2018-04-15T00:47:35.740Z,6.10
2018-04-15T00:50:10.883Z,5.73
2018-04-15T00:52:46.797Z,6.13
2018-04-15T00:55:22.664Z,5.60
2018-04-15T00:57:57.808Z,6.70
2018-04-15T01:00:33.078Z,5.77
2018-04-15T01:03:08.391Z,6.77
2018-04-15T01:05:44.237Z,7.23
2018-04-15T01:08:19.366Z,6.00
2018-04-15T01:10:54.496Z,5.97
2018-04-15T01:13:30.484Z,4.97
2018-04-15T01:16:05.639Z,6.07
2018-04-15T01:18:40.947Z,8.20
2018-04-15T01:21:16.174Z,10.90
2018-04-15T01:23:51.388Z,8.27
2018-04-15T01:26:26.624Z,5.23
2018-04-15T01:29:01.928Z,5.07
2018-04-15T01:31:37.218Z,8.77
2018-04-15T01:34:12.328Z,6.67
2018-04-15T01:36:47.679Z,5.17
2018-04-15T01:39:22.999Z,7.03
2018-04-15T01:41:58.937Z,8.80
2018-04-15T01:44:34.897Z,6.70
2018-04-15T01:47:11.878Z,11.43
2018-04-15T01:49:47.943Z,7.70
2018-04-15T01:52:23.076Z,9.13
2018-04-15T01:54:58.216Z,9.93
2018-04-15T01:57:33.453Z,8.60
2018-04-15T02:00:08.795Z,7.00
2018-04-15T02:02:44.090Z,7.00
2018-04-15T02:05:19.334Z,6.10
2018-04-15T02:07:54.617Z,6.17
2018-04-15T02:10:30.553Z,4.97
2018-04-15T02:13:06.496Z,6.90
2018-04-15T02:15:42.369Z,7.93
2018-04-15T02:18:18.449Z,5.17
2018-04-15T02:20:53.779Z,8.03
2018-04-15T02:23:28.908Z,5.47
2018-04-15T02:26:04.228Z,4.90
2018-04-15T02:28:39.964Z,6.40
2018-04-15T02:31:15.264Z,10.03
2018-04-15T02:33:50.470Z,6.57
2018-04-15T02:36:25.832Z,7.17
2018-04-15T02:39:01.159Z,6.97
2018-04-15T02:41:36.424Z,7.30
2018-04-15T02:44:11.736Z,6.30
2018-04-15T02:46:46.988Z,6.37
2018-04-15T02:49:22.216Z,6.00
2018-04-15T02:51:57.477Z,7.33
2018-04-15T02:54:32.688Z,6.87
2018-04-15T02:57:07.926Z,6.50
2018-04-15T02:59:43.173Z,7.80
2018-04-15T03:02:18.326Z,8.80
2018-04-15T03:04:53.537Z,8.53
2018-04-15T03:07:28.782Z,6.37
2018-04-15T03:10:04.651Z,10.50
2018-04-15T03:12:40.608Z,6.70
2018-04-15T03:15:15.726Z,7.27
2018-04-15T03:17:51.001Z,7.13
2018-04-15T03:20:26.291Z,6.30
2018-04-15T03:23:02.241Z,7.63
2018-04-15T03:25:37.428Z,8.80
2018-04-15T03:28:12.718Z,7.10
2018-04-15T03:30:47.932Z,7.10
2018-04-15T03:33:23.106Z,9.03
2018-04-15T03:35:58.429Z,11.33
2018-04-15T03:38:33.543Z,6.57
2018-04-15T03:41:08.815Z,7.70
2018-04-15T03:43:44.129Z,7.13
2018-04-15T03:46:22.173Z,6.87
2018-04-15T03:48:57.295Z,6.87
2018-04-15T03:51:32.834Z,7.00
2018-04-15T03:54:07.889Z,7.83
2018-04-15T03:56:43.121Z,10.73
2018-04-15T03:59:19.020Z,6.20
2018-04-15T04:01:54.210Z,8.20
2018-04-15T04:04:29.455Z,10.00
2018-04-15T04:07:05.415Z,9.63
2018-04-15T04:09:40.635Z,9.10
2018-04-15T04:12:17.767Z,6.47
2018-04-15T04:14:53.074Z,8.13
2018-04-15T04:17:46.720Z,7.07
2018-04-15T04:20:40.386Z,9.90
2018-04-15T04:23:34.230Z,8.00
2018-04-15T04:26:09.397Z,8.77
2018-04-15T04:28:44.610Z,8.27
2018-04-15T04:31:19.700Z,7.10
2018-04-15T04:33:54.931Z,9.47
2018-04-15T04:36:30.286Z,6.23
2018-04-15T04:39:06.385Z,11.30
2018-04-15T04:41:42.320Z,8.57
2018-04-15T04:44:18.262Z,6.23
2018-04-15T04:46:53.581Z,8.73
2018-04-15T04:49:28.917Z,6.60
2018-04-15T04:52:04.269Z,6.90
2018-04-15T04:54:40.145Z,7.07
2018-04-15T04:57:16.107Z,7.30
2018-04-15T04:59:51.237Z,10.17
2018-04-15T05:02:26.405Z,5.97
2018-04-15T05:05:01.684Z,7.00
2018-04-15T05:07:36.848Z,8.85
2018-04-15T05:10:11.999Z,6.17
2018-04-15T05:12:47.242Z,8.03
2018-04-15T05:15:22.413Z,7.30
2018-04-15T05:17:57.682Z,10.53
2018-04-15T05:20:33.756Z,6.43
2018-04-15T05:23:08.972Z,13.30
2018-04-15T05:25:44.291Z,6.93
2018-04-15T05:28:21.228Z,6.47
2018-04-15T05:30:57.190Z,7.40
2018-04-15T05:33:32.261Z,6.90
2018-04-15T05:36:07.558Z,6.00
2018-04-15T05:38:42.726Z,6.20
2018-04-15T05:41:18.650Z,7.20
2018-04-15T05:43:53.859Z,7.00
2018-04-15T05:46:29.191Z,6.87
2018-04-15T05:49:05.164Z,6.97
2018-04-15T05:51:41.149Z,6.80
2018-04-15T05:54:16.264Z,7.80
2018-04-15T05:56:51.609Z,6.70
2018-04-15T05:59:27.763Z,5.83
2018-04-15T06:02:03.748Z,7.57
2018-04-15T06:04:39.681Z,6.30
2018-04-15T06:07:15.766Z,6.70
2018-04-15T06:09:50.854Z,5.57
2018-04-15T06:12:25.957Z,5.60
2018-04-15T06:15:01.165Z,6.63
2018-04-15T06:17:36.462Z,6.13
2018-04-15T06:20:12.357Z,4.97
2018-04-15T06:22:47.497Z,5.80
2018-04-15T06:25:22.811Z,5.13
2018-04-15T06:27:58.194Z,5.20
2018-04-15T06:30:33.280Z,5.70
2018-04-15T06:33:08.544Z,4.50
2018-04-15T06:35:43.836Z,4.70
2018-04-15T06:38:19.007Z,4.77
2018-04-15T06:40:54.226Z,5.30
2018-04-15T06:43:29.432Z,5.23
2018-04-15T06:46:04.869Z,4.77
2018-04-15T06:48:40.000Z,5.33
2018-04-15T06:51:15.242Z,5.60
2018-04-15T06:53:50.435Z,5.97
2018-04-15T06:56:25.721Z,4.83
2018-04-15T06:59:01.063Z,4.20
2018-04-15T07:01:36.301Z,3.50
2018-04-15T07:04:12.254Z,4.80
2018-04-15T07:06:48.200Z,4.70
2018-04-15T07:09:23.300Z,5.30
2018-04-15T07:11:58.622Z,4.20
2018-04-15T07:14:34.533Z,5.20
2018-04-15T07:17:09.793Z,4.83
2018-04-15T07:19:45.150Z,5.57
2018-04-15T07:22:20.272Z,4.00
2018-04-15T07:24:55.632Z,4.83
2018-04-15T07:27:31.557Z,4.43
2018-04-15T07:30:06.889Z,3.33
2018-04-15T07:32:42.001Z,4.03
2018-04-15T07:35:17.309Z,5.23
2018-04-15T07:37:52.402Z,4.80
2018-04-15T07:40:27.703Z,3.30
2018-04-15T07:43:02.988Z,4.13
2018-04-15T07:45:39.055Z,4.03
2018-04-15T07:48:14.333Z,3.57
2018-04-15T07:50:49.677Z,3.77
2018-04-15T07:53:25.611Z,3.67
2018-04-15T07:56:00.864Z,6.43
2018-04-15T07:58:36.247Z,4.03
2018-04-15T08:01:12.326Z,4.30
2018-04-15T08:03:48.245Z,5.47
2018-04-15T08:06:23.421Z,4.63
2018-04-15T08:08:58.641Z,4.70
2018-04-15T08:11:33.941Z,6.57
2018-04-15T08:14:09.197Z,4.43
2018-04-15T08:16:44.412Z,4.90
2018-04-15T08:19:19.715Z,5.60
2018-04-15T08:21:54.931Z,5.20
2018-04-15T08:24:30.145Z,3.50
2018-04-15T08:27:06.530Z,3.80
2018-04-15T08:29:41.649Z,4.13
2018-04-15T08:32:17.641Z,4.80
2018-04-15T08:34:52.968Z,4.20
2018-04-15T08:37:28.602Z,3.33
2018-04-15T08:40:03.852Z,3.77
2018-04-15T08:42:39.109Z,6.40
2018-04-15T08:45:14.486Z,6.60
2018-04-15T08:47:49.616Z,4.03
2018-04-15T08:50:24.842Z,3.73
2018-04-15T08:53:00.092Z,4.33
2018-04-15T08:55:35.378Z,6.13
2018-04-15T08:58:10.944Z,3.20
2018-04-15T09:00:47.642Z,3.17
2018-04-15T09:03:22.820Z,3.20
2018-04-15T09:05:58.034Z,4.50
2018-04-15T09:08:33.248Z,4.40
2018-04-15T09:11:08.520Z,3.03
2018-04-15T09:13:43.807Z,4.13
2018-04-15T09:16:19.129Z,2.90
2018-04-15T09:18:54.376Z,5.67
2018-04-15T09:21:29.696Z,3.73
2018-04-15T09:24:04.892Z,3.30
2018-04-15T09:26:40.164Z,3.60
2018-04-15T09:29:16.097Z,3.27
2018-04-15T09:31:51.421Z,8.70
2018-04-15T09:34:26.615Z,5.13
2018-04-15T09:37:01.884Z,3.60
2018-04-15T09:39:37.770Z,2.90
2018-04-15T09:42:13.943Z,3.37
2018-04-15T09:44:49.089Z,3.57
2018-04-15T09:47:24.288Z,3.77
2018-04-15T09:50:00.256Z,3.40
2018-04-15T09:52:35.465Z,4.10
2018-04-15T09:55:10.624Z,3.10
2018-04-15T09:57:45.936Z,2.70
2018-04-15T10:00:21.836Z,3.10
2018-04-15T10:02:57.788Z,3.00
2018-04-15T10:05:32.981Z,3.10
2018-04-15T10:08:08.274Z,4.13
2018-04-15T10:10:43.508Z,3.83
2018-04-15T10:13:19.508Z,3.60
2018-04-15T10:15:54.663Z,3.63
2018-04-15T13:06:40.177Z,6.67
2018-04-15T13:09:15.543Z,2.80
2018-04-15T13:11:51.625Z,2.90
2018-04-15T13:14:42.753Z,2.87
2018-04-15T13:17:17.943Z,4.43
2018-04-15T13:19:54.609Z,2.70
2018-04-15T13:22:31.073Z,2.30
2018-04-15T13:25:06.409Z,3.70
2018-04-15T13:27:41.754Z,1.87
2018-04-15T13:30:18.632Z,2.93
2018-04-15T13:32:55.443Z,1.90
2018-04-15T13:35:31.478Z,1.87
2018-04-15T13:38:06.887Z,1.60
2018-04-15T13:40:42.027Z,3.83
2018-04-15T13:43:17.907Z,3.03
2018-04-15T13:45:53.412Z,3.73
2018-04-15T13:48:38.516Z,2.73
2018-04-15T13:51:13.789Z,4.13
2018-04-15T13:53:49.833Z,2.10
2018-04-15T13:56:25.045Z,3.50
2018-04-15T13:59:00.348Z,1.83
2018-04-15T14:01:35.741Z,2.90
2018-04-15T14:04:15.047Z,1.40
2018-04-15T14:06:51.267Z,3.83
2018-04-15T14:09:27.210Z,1.60
2018-04-15T14:12:02.281Z,5.77
2018-04-15T14:14:37.525Z,2.30
2018-04-15T14:17:13.396Z,1.83
2018-04-15T14:19:48.577Z,2.17
2018-04-15T14:22:24.612Z,2.70
2018-04-15T14:25:00.571Z,2.10
2018-04-15T14:27:35.752Z,3.40
2018-04-15T14:30:10.941Z,2.00
2018-04-15T14:32:46.737Z,1.37
2018-04-15T14:35:21.987Z,5.13
2018-04-15T14:37:57.090Z,1.70
2018-04-15T14:40:32.480Z,2.30
2018-04-15T14:43:07.720Z,2.87
2018-04-15T14:45:42.942Z,2.10
2018-04-15T14:48:18.187Z,1.57
2018-04-15T14:50:54.221Z,3.17
2018-04-15T14:53:29.362Z,2.63
2018-04-15T14:56:04.531Z,2.70
2018-04-15T14:58:39.748Z,3.00
2018-04-15T15:01:14.974Z,3.33
2018-04-15T15:03:50.961Z,3.20
2018-04-15T15:06:26.580Z,6.00
2018-04-15T15:09:01.897Z,4.10
2018-04-15T15:11:38.301Z,2.57
2018-04-15T15:14:13.439Z,3.40
2018-04-15T15:16:49.606Z,2.90
2018-04-15T15:19:31.165Z,2.70
2018-04-15T15:22:06.196Z,4.37
2018-04-15T15:24:41.661Z,2.73
2018-04-15T15:27:17.601Z,2.77
2018-04-15T15:29:52.757Z,3.30
2018-04-15T15:32:27.961Z,2.30
2018-04-15T15:35:03.274Z,2.60
2018-04-15T15:37:39.194Z,2.10
2018-04-15T15:40:14.486Z,3.13
2018-04-15T15:42:50.598Z,2.97
2018-04-15T15:45:25.859Z,3.77
2018-04-15T15:48:01.845Z,3.33
2018-04-15T15:50:37.010Z,2.40
2018-04-15T15:53:12.096Z,5.97
2018-04-15T15:55:47.430Z,4.43
2018-04-15T15:58:23.319Z,2.20
2018-04-15T16:00:58.581Z,2.87
2018-04-15T16:03:33.856Z,2.07
2018-04-15T16:06:09.131Z,2.17
2018-04-15T16:08:48.648Z,2.57
2018-04-15T16:11:23.958Z,2.10
2018-04-15T16:13:59.072Z,2.37
2018-04-15T16:16:35.077Z,2.10
2018-04-15T16:19:10.397Z,2.37
2018-04-15T16:21:45.634Z,3.50
2018-04-15T16:24:20.769Z,2.53
2018-04-15T16:26:56.087Z,3.67
2018-04-15T16:29:32.900Z,4.33
2018-04-15T16:32:08.851Z,3.80
2018-04-15T16:34:44.858Z,2.83
2018-04-15T16:37:20.133Z,2.80
2018-04-15T16:39:55.279Z,2.90
2018-04-15T16:42:31.210Z,2.00
2018-04-15T16:45:06.532Z,2.43
2018-04-15T16:47:42.418Z,2.13
2018-04-15T16:50:18.080Z,3.57
2018-04-15T16:52:53.212Z,2.10
2018-04-15T16:55:28.499Z,2.40
2018-04-15T16:58:05.382Z,3.30
2018-04-15T17:00:41.431Z,2.20
2018-04-15T17:03:17.520Z,2.40
2018-04-15T17:05:52.915Z,1.93
2018-04-15T17:08:28.050Z,3.03
2018-04-15T17:11:04.045Z,2.30
2018-04-15T17:13:39.156Z,3.03
2018-04-15T17:16:14.669Z,2.20
2018-04-15T17:18:50.640Z,2.10
2018-04-15T17:21:26.711Z,2.20
2018-04-15T17:24:01.984Z,3.00
2018-04-15T17:26:37.289Z,2.30
2018-04-15T17:29:13.397Z,3.23
2018-04-15T17:31:48.587Z,2.47
2018-04-15T17:34:23.870Z,3.43
2018-04-15T17:36:59.149Z,3.03
2018-04-15T17:39:35.055Z,2.50
2018-04-15T17:42:11.002Z,5.27
2018-04-15T17:44:46.170Z,2.50
2018-04-15T17:47:21.381Z,2.30
2018-04-15T17:49:56.790Z,9.23
2018-04-15T17:52:31.998Z,5.40
2018-04-15T17:55:07.309Z,3.30
2018-04-15T17:57:42.474Z,3.50
2018-04-15T18:00:17.791Z,3.10
2018-04-15T18:02:53.313Z,2.53
2018-04-15T18:05:28.468Z,2.50
2018-04-15T18:08:03.692Z,2.40
2018-04-15T18:10:39.833Z,3.07
2018-04-15T18:13:15.832Z,3.63
2018-04-15T18:15:50.965Z,2.30
2018-04-15T18:18:26.230Z,5.23
2018-04-15T18:21:01.560Z,3.80
2018-04-15T18:23:40.017Z,5.40
2018-04-15T18:26:15.258Z,5.33
2018-04-15T18:29:16.592Z,3.33
2018-04-15T18:31:51.961Z,3.00
2018-04-15T18:34:31.635Z,5.93
2018-04-15T18:37:07.025Z,4.57
2018-04-15T18:39:44.424Z,3.30
2018-04-15T18:42:20.306Z,3.60
2018-04-15T18:44:55.597Z,5.97
2018-04-15T18:47:31.830Z,5.43
2018-04-15T18:50:07.151Z,3.57
2018-04-15T18:52:42.177Z,3.70
2018-04-15T18:55:17.456Z,4.23
2018-04-15T18:57:53.317Z,4.03
2018-04-15T19:00:29.336Z,3.67
2018-04-15T19:03:05.440Z,4.10
2018-04-15T19:05:41.854Z,6.37
2018-04-15T19:08:17.890Z,8.10
2018-04-15T19:10:53.210Z,5.77
2018-04-15T19:13:28.396Z,7.20
2018-04-15T19:16:05.589Z,3.67
2018-04-15T19:18:41.795Z,4.10
2018-04-15T19:21:17.871Z,3.53
2018-04-15T19:23:53.163Z,3.83
2018-04-15T19:26:28.566Z,4.10
2018-04-15T19:29:03.642Z,3.03
2018-04-15T19:31:39.869Z,3.07
2018-04-15T19:34:16.126Z,4.10
2018-04-15T19:36:51.482Z,4.27
2018-04-15T19:39:27.654Z,4.50
2018-04-15T19:42:03.007Z,4.90
2018-04-15T19:44:38.485Z,3.80
2018-04-15T19:47:13.615Z,4.30
2018-04-15T19:49:49.772Z,4.00
2018-04-15T19:52:25.027Z,4.20
2018-04-15T19:55:00.309Z,3.87
2018-04-15T19:57:36.641Z,3.73
2018-04-15T20:00:14.988Z,3.97
2018-04-15T20:02:50.361Z,4.13
2018-04-15T20:05:26.366Z,4.40
2018-04-15T20:08:01.597Z,4.43
2018-04-15T20:10:36.871Z,4.13
2018-04-15T20:13:12.005Z,5.50
2018-04-15T20:15:47.343Z,4.20
2018-04-15T20:18:22.779Z,4.23
2018-04-15T20:20:59.038Z,3.60
2018-04-15T20:23:35.090Z,5.13
2018-04-15T20:26:10.383Z,6.30
2018-04-15T20:28:45.480Z,3.97
2018-04-15T20:31:20.804Z,4.53
2018-04-15T20:33:55.910Z,4.13
2018-04-15T20:36:31.437Z,3.60
2018-04-15T20:39:07.511Z,3.70
2018-04-15T20:41:42.676Z,2.87
2018-04-15T20:44:17.818Z,2.60
2018-04-15T20:46:53.048Z,4.57
2018-04-15T20:49:28.326Z,6.30
2018-04-15T20:52:03.471Z,2.97
2018-04-15T20:54:40.111Z,2.70
2018-04-15T20:57:15.451Z,3.20
2018-04-15T20:59:51.382Z,3.63
2018-04-15T21:02:27.945Z,3.10
2018-04-15T21:05:04.038Z,3.37
2018-04-15T21:07:39.554Z,3.73
2018-04-15T21:10:14.778Z,3.77
2018-04-15T21:12:50.002Z,1.90
2018-04-15T21:15:25.851Z,2.30
2018-04-15T21:18:01.196Z,1.73
2018-04-15T21:20:36.416Z,4.00
2018-04-15T21:23:11.738Z,2.33
2018-04-15T21:25:47.049Z,2.50
2018-04-15T21:28:22.338Z,2.40
2018-04-15T21:30:57.486Z,1.80
2018-04-15T21:33:32.599Z,1.97
2018-04-15T21:36:07.912Z,1.33
2018-04-15T21:38:43.063Z,1.23
2018-04-15T21:41:18.972Z,1.87
2018-04-15T21:43:54.188Z,1.77
2018-04-15T21:46:29.527Z,1.70
2018-04-15T21:49:04.666Z,1.70
2018-04-15T21:51:40.697Z,4.80
2018-04-15T21:54:15.927Z,1.57
2018-04-15T21:56:51.094Z,1.80
2018-04-15T21:59:26.520Z,2.27
2018-04-15T22:02:01.684Z,1.73
2018-04-15T22:04:37.520Z,4.00
2018-04-15T22:07:13.553Z,1.70
2018-04-15T22:09:49.578Z,2.93
2018-04-15T22:12:24.884Z,1.40
2018-04-15T22:15:00.906Z,5.00
2018-04-15T22:17:36.168Z,3.17
2018-04-15T22:20:11.551Z,1.17
2018-04-15T22:22:46.766Z,1.70
2018-04-15T22:25:21.928Z,1.90
2018-04-15T22:27:57.140Z,1.50
2018-04-15T22:30:33.076Z,1.73
2018-04-15T22:33:08.458Z,1.27
2018-04-15T22:35:43.696Z,4.40
2018-04-15T22:38:18.957Z,2.03
2018-04-15T22:40:54.103Z,1.23
2018-04-15T22:43:30.035Z,3.10
2018-04-15T22:46:05.402Z,1.40
2018-04-15T22:48:45.674Z,3.00
2018-04-15T22:51:20.872Z,1.50
2018-04-15T22:53:56.160Z,1.37
2018-04-15T22:56:36.920Z,2.50
2018-04-15T22:59:12.977Z,1.53
2018-04-15T23:01:48.163Z,1.77
2018-04-15T23:04:23.416Z,1.33
2018-04-15T23:06:58.690Z,1.97
2018-04-15T23:09:34.001Z,2.10
2018-04-15T23:12:09.257Z,2.00
2018-04-15T23:14:44.588Z,1.10
2018-04-15T23:17:19.824Z,1.93
2018-04-15T23:19:55.293Z,1.97
2018-04-15T23:22:30.331Z,2.57
2018-04-15T23:25:05.527Z,1.37
2018-04-15T23:27:41.508Z,1.20
2018-04-15T23:30:16.773Z,2.17
2018-04-15T23:32:52.098Z,1.77
2018-04-15T23:35:27.361Z,3.13
2018-04-15T23:38:03.533Z,1.37
2018-04-15T23:40:38.773Z,3.10
2018-04-15T23:43:14.139Z,4.03
2018-04-15T23:45:49.276Z,2.10
2018-04-15T23:48:24.669Z,2.43
2018-04-15T23:50:59.886Z,2.00
2018-04-15T23:53:39.526Z,1.53
2018-04-15T23:56:14.694Z,2.70
2018-04-15T23:58:49.857Z,2.53
